Time;durP1;ratioP1;P1;durP2;ratioP2;P2;SDS_P1;SDS_P2;PMS_P1;PMS_P2;Temp;Humidity;BMP_temperature;BMP_pressure;BME280_temperature;BME280_humidity;BME280_pressure;Samples;Min_cycle;Max_cycle;Signal;HPM_P1;HPM_P2
2022/06/17 00:02:05;;;;;;;4.22;1.75;;;;;;;15.41;61.16;100890.38;5033657;28;20488;-68
2022/06/17 00:04:30;;;;;;;2.60;1.50;;;;;;;15.41;61.20;100894.81;5033931;28;20064;-67
2022/06/17 00:06:59;;;;;;;2.47;1.30;;;;;;;15.46;61.09;100892.88;4984181;28;20041;-68
2022/06/17 00:09:27;;;;;;;2.75;1.27;;;;;;;15.45;61.12;100897.31;5033665;28;20108;-68
2022/06/17 00:11:53;;;;;;;2.55;1.38;;;;;;;15.33;61.43;100899.50;4999984;28;20038;-68
2022/06/17 00:14:24;;;;;;;2.65;1.30;;;;;;;15.26;61.67;100885.59;5033560;28;20052;-68
2022/06/17 00:16:50;;;;;;;3.53;1.48;;;;;;;15.19;61.92;100894.63;5016015;28;20026;-68
2022/06/17 00:19:18;;;;;;;2.00;1.20;;;;;;;15.25;61.83;100899.75;5033457;28;20045;-68
2022/06/17 00:21:47;;;;;;;4.45;2.00;;;;;;;15.10;62.41;100894.94;5033500;28;20033;-68
2022/06/17 00:24:18;;;;;;;2.40;1.30;;;;;;;15.06;62.59;100893.31;5033679;28;20025;-68
2022/06/17 00:26:44;;;;;;;3.10;1.40;;;;;;;15.05;62.80;100897.75;5033663;28;20480;-68
2022/06/17 00:29:15;;;;;;;2.15;1.48;;;;;;;14.98;62.94;100890.91;5015698;28;20226;-68
2022/06/17 00:31:41;;;;;;;3.35;1.67;;;;;;;15.02;63.06;100892.53;5033382;28;20337;-68
2022/06/17 00:34:07;;;;;;;3.00;1.70;;;;;;;14.90;64.32;100896.44;5033437;28;20041;-68
2022/06/17 00:36:33;;;;;;;2.08;1.42;;;;;;;14.90;63.68;100899.09;5033416;28;20029;-67
2022/06/17 00:38:59;;;;;;;2.88;1.90;;;;;;;14.95;63.69;100897.16;5033281;28;20045;-68
2022/06/17 00:41:32;;;;;;;3.65;1.65;;;;;;;15.00;63.54;100899.66;5033193;28;20041;-68
2022/06/17 00:44:00;;;;;;;2.92;1.73;;;;;;;14.97;63.44;100894.47;5015729;28;20081;-66
2022/06/17 00:46:53;;;;;;;2.80;1.42;;;;;;;14.95;64.61;100899.81;5033461;28;20029;-68
2022/06/17 00:49:46;;;;;;;2.15;1.38;;;;;;;14.88;64.57;100906.22;5033331;28;20030;-68
2022/06/17 00:52:38;;;;;;;3.15;1.77;;;;;;;15.00;64.02;100903.19;5031096;28;20049;-68
2022/06/17 00:55:13;;;;;;;3.60;1.55;;;;;;;15.03;63.43;100905.72;5033538;28;20044;-68
2022/06/17 00:57:41;;;;;;;4.32;1.83;;;;;;;14.88;63.99;100906.22;5037349;28;20037;-68
2022/06/17 01:00:20;;;;;;;2.60;1.58;;;;;;;14.95;64.31;100914.81;5037129;28;20052;-68
2022/06/17 01:02:53;;;;;;;3.67;2.00;;;;;;;14.78;64.58;100902.13;5037016;28;20079;-67
2022/06/17 01:05:23;;;;;;;3.92;1.70;;;;;;;14.63;65.14;100911.38;5037038;28;20484;-68
2022/06/17 01:08:04;;;;;;;3.90;2.25;;;;;;;14.74;65.63;100911.06;5037184;28;20060;-68
2022/06/17 01:10:31;;;;;;;3.22;1.80;;;;;;;14.78;64.45;100910.06;5036843;28;20476;-68
2022/06/17 01:13:06;;;;;;;2.85;1.88;;;;;;;14.70;64.87;100907.63;5036722;28;20038;-68
2022/06/17 01:15:35;;;;;;;2.92;1.80;;;;;;;14.72;64.86;100912.88;5018765;28;20129;-68
2022/06/17 01:18:01;;;;;;;2.63;1.45;;;;;;;14.71;64.70;100909.38;5036536;28;20489;-68
2022/06/17 01:20:29;;;;;;;4.40;2.00;;;;;;;14.52;65.84;100911.72;5036831;28;20477;-68
2022/06/17 01:23:04;;;;;;;2.42;1.70;;;;;;;14.59;66.00;100911.50;5036754;28;20428;-68
2022/06/17 01:25:42;;;;;;;3.40;1.92;;;;;;;14.57;66.93;100910.72;5036661;28;20048;-68
2022/06/17 01:28:11;;;;;;;2.67;1.88;;;;;;;14.46;66.40;100919.78;5036317;28;20373;-68
2022/06/17 01:30:58;;;;;;;3.05;1.77;;;;;;;14.44;67.62;100916.31;5018565;28;20439;-68
2022/06/17 01:33:28;;;;;;;3.78;1.60;;;;;;;14.54;65.79;100917.81;5036654;28;20029;-68
2022/06/17 01:36:02;;;;;;;4.20;1.70;;;;;;;14.60;66.43;100921.16;5036260;28;20052;-68
2022/06/17 01:38:29;;;;;;;3.63;1.85;;;;;;;14.61;65.85;100918.50;5018258;28;20026;-68
2022/06/17 01:40:56;;;;;;;3.58;1.90;;;;;;;14.61;66.16;100917.63;5018554;28;20060;-68
2022/06/17 01:43:26;;;;;;;3.50;1.90;;;;;;;14.61;66.28;100913.22;5002202;28;20038;-68
2022/06/17 01:46:01;;;;;;;2.70;1.98;;;;;;;14.51;66.65;100917.03;5036015;28;20030;-68
2022/06/17 01:48:32;;;;;;;2.65;1.80;;;;;;;14.63;66.13;100918.44;5036525;28;20025;-68
2022/06/17 01:50:59;;;;;;;3.92;2.08;;;;;;;14.53;66.61;100910.78;5018360;28;20091;-68
2022/06/17 01:53:29;;;;;;;3.22;1.85;;;;;;;14.56;66.47;100914.25;5051480;28;20140;-69
2022/06/17 01:56:05;;;;;;;3.28;1.80;;;;;;;14.48;67.35;100917.97;5018475;28;20033;-68
2022/06/17 01:58:37;;;;;;;2.58;1.98;;;;;;;14.48;67.68;100911.78;5036141;28;20090;-68
2022/06/17 02:01:06;;;;;;;3.50;1.80;;;;;;;14.44;66.89;100908.41;5035897;28;20449;-66
2022/06/17 02:03:49;;;;;;;2.95;1.80;;;;;;;14.48;67.92;100911.78;5036126;28;20030;-68
2022/06/17 02:06:32;;;;;;;4.10;1.90;;;;;;;14.60;66.69;100910.59;5035647;28;20025;-66
2022/06/17 02:08:58;;;;;;;2.65;1.67;;;;;;;14.64;66.27;100920.16;5035238;28;20103;-67
2022/06/17 02:11:24;;;;;;;4.13;2.10;;;;;;;14.60;66.79;100921.16;5035749;28;20365;-67
2022/06/17 02:13:49;;;;;;;3.67;1.90;;;;;;;14.59;66.70;100914.16;5017975;28;20041;-68
2022/06/17 02:16:16;;;;;;;3.38;1.90;;;;;;;14.43;67.65;100925.16;5035918;28;20530;-68
2022/06/17 02:18:43;;;;;;;4.15;2.53;;;;;;;14.43;68.19;100911.94;5035517;28;20029;-68
2022/06/17 02:21:26;;;;;;;5.95;2.60;;;;;;;14.36;69.41;100917.44;5034332;28;20108;-68
2022/06/17 02:23:52;;;;;;;;;;;;;;;14.35;69.61;100918.34;5035780;28;20029;-68
2022/06/17 02:26:21;;;;;;;3.05;1.70;;;;;;;14.41;67.49;100916.41;5050748;28;19942;-68
2022/06/17 02:28:49;;;;;;;2.95;1.90;;;;;;;14.49;67.03;100919.72;5035411;28;20037;-68
2022/06/17 02:31:16;;;;;;;3.90;2.35;;;;;;;14.45;67.49;100915.41;5035312;28;20034;-68
2022/06/17 02:33:43;;;;;;;5.68;2.13;;;;;;;14.40;67.65;100924.38;5035197;28;20031;-68
2022/06/17 02:36:14;;;;;;;6.28;2.47;;;;;;;14.27;68.15;100919.44;5017488;28;20107;-68
2022/06/17 02:38:41;;;;;;;3.38;1.95;;;;;;;14.32;67.81;100916.66;5035544;28;20044;-67
2022/06/17 02:41:13;;;;;;;2.88;1.65;;;;;;;14.35;67.59;100911.28;5034885;28;20033;-68
2022/06/17 02:43:43;;;;;;;6.10;2.42;;;;;;;14.35;67.78;100911.28;5035155;28;20036;-68
2022/06/17 02:46:22;;;;;;;3.53;2.10;;;;;;;14.44;67.97;100916.31;5035006;28;20037;-68
2022/06/17 02:48:54;;;;;;;4.43;1.83;;;;;;;14.47;67.79;100918.84;5035118;28;20457;-68
2022/06/17 02:51:21;;;;;;;4.28;2.05;;;;;;;14.59;66.87;100914.16;5016863;28;20041;-67
2022/06/17 02:53:47;;;;;;;4.18;2.47;;;;;;;14.47;67.47;100912.72;5050941;28;20029;-68
2022/06/17 02:56:20;;;;;;;8.15;2.75;;;;;;;14.29;69.19;100911.47;5034981;28;20037;-68
2022/06/17 02:58:51;;;;;;;3.05;2.50;;;;;;;14.36;68.12;100917.44;5035188;28;20507;-68
2022/06/17 03:01:21;;;;;;;6.18;2.20;;;;;;;14.44;68.07;100918.06;5034933;28;20461;-68
2022/06/17 03:03:47;;;;;;;5.20;2.15;;;;;;;14.54;67.80;100914.31;5034734;28;20029;-68
2022/06/17 03:06:35;;;;;;;4.30;2.50;;;;;;;14.62;68.09;100920.22;5017247;28;20036;-68
2022/06/17 03:09:16;;;;;;;3.50;2.20;;;;;;;14.67;67.88;100909.50;5034455;28;20063;-68
2022/06/17 03:11:43;;;;;;;5.78;2.60;;;;;;;14.66;67.64;100911.28;5034716;28;20056;-68
2022/06/17 03:14:12;;;;;;;3.50;1.92;;;;;;;14.82;67.15;100903.75;5034467;28;20466;-68
2022/06/17 03:16:37;;;;;;;4.68;2.28;;;;;;;14.95;66.73;100912.16;5034368;28;20090;-68
2022/06/17 03:19:03;;;;;;;4.65;2.42;;;;;;;14.91;67.28;100910.53;5033894;28;20034;-68
2022/06/17 03:21:28;;;;;;;3.65;2.47;;;;;;;15.02;66.72;100908.41;5034190;28;20037;-68
2022/06/17 03:24:16;;;;;;;3.35;2.38;;;;;;;15.10;67.35;100916.13;5034360;28;20030;-68
2022/06/17 03:26:52;;;;;;;2.75;2.00;;;;;;;15.14;66.61;100915.09;5034267;28;20040;-68
2022/06/17 03:29:20;;;;;;;6.18;2.72;;;;;;;15.15;66.75;100919.47;5016897;28;20060;-68
2022/06/17 03:31:54;;;;;;;4.13;2.47;;;;;;;15.24;66.75;100921.81;5016623;28;20029;-68
2022/06/17 03:34:45;;;;;;;5.70;2.35;;;;;;;15.33;67.36;100926.84;5034262;28;20116;-68
2022/06/17 03:37:39;;;;;;;3.10;1.90;;;;;;;15.35;67.01;100922.34;5033980;28;20037;-68
2022/06/17 03:40:04;;;;;;;6.28;2.83;;;;;;;15.31;67.24;100917.19;5034171;28;20060;-68
2022/06/17 03:42:52;;;;;;;3.60;2.50;;;;;;;15.48;66.50;100929.00;5034367;28;20029;-68
2022/06/17 03:45:31;;;;;;;3.33;2.05;;;;;;;15.49;67.19;100920.13;5034019;28;20152;-68
2022/06/17 03:48:12;;;;;;;4.95;2.45;;;;;;;15.62;66.69;100917.91;5016787;28;20420;-68
2022/06/17 03:50:43;;;;;;;4.10;2.70;;;;;;;15.69;66.32;100918.63;5033892;28;20414;-68
2022/06/17 03:53:24;;;;;;;3.80;2.70;;;;;;;15.68;66.81;100936.31;5033791;28;20084;-68
2022/06/17 03:55:56;;;;;;;4.28;2.60;;;;;;;15.87;65.89;100936.50;5033856;28;20030;-68
2022/06/17 03:58:23;;;;;;;5.72;2.83;;;;;;;15.95;65.66;100930.94;5033760;28;20040;-68
2022/06/17 04:00:53;;;;;;;7.80;3.05;;;;;;;15.88;66.68;100937.38;5016143;28;20120;-68
2022/06/17 04:03:25;;;;;;;4.70;2.90;;;;;;;16.01;66.08;100936.03;5033481;28;20052;-68
2022/06/17 04:06:08;;;;;;;5.72;2.50;;;;;;;16.01;66.52;100936.91;5033576;28;20033;-68
2022/06/17 04:08:35;;;;;;;;;;;;;;;16.12;67.60;100935.69;5034114;28;20025;-68
2022/06/17 04:11:02;;;;;;;4.68;2.60;;;;;;;16.14;66.27;100939.13;5033598;28;19924;-68
2022/06/17 04:13:31;;;;;;;4.93;2.63;;;;;;;16.17;66.56;100944.31;5000046;28;20045;-68
2022/06/17 04:16:02;;;;;;;7.20;2.88;;;;;;;16.33;66.26;100932.22;5033666;28;20025;-68
2022/06/17 04:18:33;;;;;;;5.25;3.05;;;;;;;16.43;65.92;100936.25;5033512;28;20033;-68
2022/06/17 04:20:58;;;;;;;4.47;2.42;;;;;;;16.63;65.00;100940.81;5033795;28;20038;-68
2022/06/17 04:23:33;;;;;;;7.10;3.05;;;;;;;16.57;66.35;100941.06;5016199;28;20562;-68
2022/06/17 04:26:01;;;;;;;15.07;3.25;;;;;;;16.42;67.10;100942.50;5033517;28;20029;-68
2022/06/17 04:28:37;;;;;;;5.93;3.13;;;;;;;16.43;66.87;100933.59;5033447;28;20381;-68
2022/06/17 04:31:07;;;;;;;5.40;2.97;;;;;;;16.62;66.44;100935.59;5035225;28;20021;-68
2022/06/17 04:33:45;;;;;;;3.25;2.65;;;;;;;16.77;66.33;100945.66;5019835;28;20115;-68
2022/06/17 04:36:35;;;;;;;3.90;2.42;;;;;;;16.71;67.40;100944.03;5037778;28;20052;-68
2022/06/17 04:39:14;;;;;;;4.93;3.10;;;;;;;16.88;65.74;100950.56;5037480;28;20033;-68
2022/06/17 04:41:42;;;;;;;4.18;2.60;;;;;;;16.89;65.51;100955.78;5037430;28;20034;-68
2022/06/17 04:44:12;;;;;;;5.65;2.60;;;;;;;17.05;65.51;100955.19;5037391;28;20033;-68
2022/06/17 04:46:53;;;;;;;4.40;2.47;;;;;;;17.15;65.92;100943.28;5037544;28;20040;-68
2022/06/17 04:49:22;;;;;;;3.30;2.47;;;;;;;17.39;64.26;100946.72;5052621;28;20029;-68
2022/06/17 04:51:49;;;;;;;4.72;2.70;;;;;;;17.57;63.99;100947.78;5019289;28;20049;-68
2022/06/17 04:54:15;;;;;;;4.85;3.03;;;;;;;17.64;63.69;100943.94;5037082;28;20053;-68
2022/06/17 04:56:47;;;;;;;3.83;2.50;;;;;;;17.70;63.70;100946.31;5037083;28;20037;-68
2022/06/17 04:59:22;;;;;;;4.43;2.70;;;;;;;17.80;63.46;100945.06;5037481;28;20112;-68
2022/06/17 05:01:48;;;;;;;8.00;3.10;;;;;;;17.80;63.49;100949.50;5037214;28;20068;-68
2022/06/17 05:04:14;;;;;;;4.70;2.25;;;;;;;17.87;63.35;100943.88;5036895;28;20542;-68
2022/06/17 05:06:39;;;;;;;5.07;2.30;;;;;;;18.09;62.79;100950.91;5036896;28;20110;-68
2022/06/17 05:09:16;;;;;;;5.75;2.67;;;;;;;18.12;63.12;100948.13;5036618;28;20364;-68
2022/06/17 05:11:45;;;;;;;4.97;2.88;;;;;;;18.13;63.04;100947.16;5052252;28;20039;-68
2022/06/17 05:14:22;;;;;;;4.95;2.53;;;;;;;18.33;62.69;100947.16;5036726;28;20112;-68
2022/06/17 05:16:48;;;;;;;4.82;2.47;;;;;;;18.40;62.29;100951.28;5037660;28;20112;-68
2022/06/17 05:19:13;;;;;;;3.40;2.60;;;;;;;18.36;62.58;100954.13;5019067;28;20080;-68
2022/06/17 05:21:38;;;;;;;4.53;2.95;;;;;;;18.39;62.38;100956.63;5036578;28;20030;-68
2022/06/17 05:24:04;;;;;;;5.68;2.90;;;;;;;18.43;62.70;100947.59;5019071;28;20033;-68
2022/06/17 05:26:30;;;;;;;4.95;2.53;;;;;;;18.65;62.06;100943.03;5036516;28;20543;-68
2022/06/17 05:28:56;;;;;;;6.07;2.75;;;;;;;18.71;61.73;100949.88;5035234;28;20076;-68
2022/06/17 05:31:26;;;;;;;6.80;2.58;;;;;;;18.86;61.56;100945.66;5051848;28;20507;-69
2022/06/17 05:33:51;;;;;;;7.75;2.65;;;;;;;18.87;61.48;100950.03;5036492;28;20045;-68
2022/06/17 05:36:17;;;;;;;4.03;2.40;;;;;;;19.01;61.19;100952.06;5036445;28;20040;-68
2022/06/17 05:38:42;;;;;;;4.90;2.35;;;;;;;18.99;61.33;100949.47;5036216;28;20091;-68
2022/06/17 05:41:14;;;;;;;4.72;2.25;;;;;;;19.03;61.84;100953.72;5018691;28;20393;-69
2022/06/17 05:43:40;;;;;;;5.43;2.90;;;;;;;19.07;61.37;100957.97;5051884;28;20029;-68
2022/06/17 05:46:05;;;;;;;6.65;2.88;;;;;;;18.95;61.81;100954.06;5036110;28;20377;-68
2022/06/17 05:48:31;;;;;;;3.60;2.42;;;;;;;19.05;61.61;100959.81;5035833;28;20160;-68
2022/06/17 05:50:56;;;;;;;3.58;2.50;;;;;;;19.24;61.23;100962.47;5034945;28;20060;-68
2022/06/17 05:53:22;;;;;;;7.10;2.72;;;;;;;19.47;60.54;100955.13;5036065;28;20053;-69
2022/06/17 05:55:48;;;;;;;5.88;2.60;;;;;;;19.60;60.21;100956.28;5036036;28;20080;-68
2022/06/17 05:58:13;;;;;;;4.82;2.70;;;;;;;19.79;59.92;100962.44;5035996;28;20029;-69
2022/06/17 06:00:39;;;;;;;4.55;2.33;;;;;;;19.90;59.63;100964.53;5018227;28;20034;-68
2022/06/17 06:03:07;;;;;;;5.28;2.50;;;;;;;20.03;59.44;100954.09;5017973;28;20040;-68
2022/06/17 06:05:33;;;;;;;4.15;2.45;;;;;;;20.07;59.34;100958.34;5035867;28;20038;-69
2022/06/17 06:07:59;;;;;;;3.40;2.00;;;;;;;20.10;59.17;100959.03;5035804;28;20041;-69
2022/06/17 06:10:26;;;;;;;4.75;2.13;;;;;;;20.28;58.86;100975.03;5035796;28;20063;-69
2022/06/17 06:12:57;;;;;;;4.90;2.50;;;;;;;20.34;58.50;100967.53;5035642;28;20037;-68
2022/06/17 06:15:44;;;;;;;4.70;2.40;;;;;;;20.45;58.51;100972.31;5035665;28;20030;-69
2022/06/17 06:18:16;;;;;;;6.63;2.60;;;;;;;20.60;57.55;100965.34;5036027;28;20075;-69
2022/06/17 06:20:42;;;;;;;3.85;2.40;;;;;;;20.47;57.49;100974.91;5051242;28;20030;-69
2022/06/17 06:23:08;;;;;;;3.17;1.88;;;;;;;20.67;56.99;100970.28;5035436;28;20056;-69
2022/06/17 06:25:33;;;;;;;5.78;1.85;;;;;;;20.53;57.06;100967.47;5035579;28;20041;-69
2022/06/17 06:28:07;;;;;;;4.20;2.00;;;;;;;20.57;56.44;100966.34;5035349;28;20394;-68
2022/06/17 06:30:32;;;;;;;4.47;2.13;;;;;;;20.80;56.03;100970.47;5017513;28;20030;-69
2022/06/17 06:33:00;;;;;;;5.63;1.95;;;;;;;20.97;55.51;100972.19;5035294;28;20040;-68
2022/06/17 06:35:28;;;;;;;4.60;2.00;;;;;;;21.02;55.42;100974.59;5035275;28;20033;-69
2022/06/17 06:37:54;;;;;;;4.65;1.60;;;;;;;21.17;55.22;100982.63;5017595;28;20179;-69
2022/06/17 06:40:20;;;;;;;5.70;1.83;;;;;;;21.32;54.87;100967.56;5001283;28;20045;-68
2022/06/17 06:42:47;;;;;;;4.85;2.05;;;;;;;21.33;54.66;100969.28;5035181;28;20037;-68
2022/06/17 06:45:33;;;;;;;4.65;2.20;;;;;;;21.35;53.91;100969.22;5035041;28;20052;-69
2022/06/17 06:48:02;;;;;;;5.20;1.95;;;;;;;21.47;53.68;100970.31;5034787;28;20032;-69
2022/06/17 06:50:29;;;;;;;5.30;2.42;;;;;;;21.45;54.10;100980.22;5016896;28;20115;-69
2022/06/17 06:52:55;;;;;;;5.22;2.08;;;;;;;21.53;53.76;100976.16;5034145;28;20054;-67
2022/06/17 06:55:21;;;;;;;4.07;1.77;;;;;;;21.73;53.64;100982.16;5035164;28;20111;-67
2022/06/17 06:57:58;;;;;;;4.93;1.95;;;;;;;21.81;51.50;100991.44;5035221;28;20470;-68
2022/06/17 07:00:27;;;;;;;3.75;1.40;;;;;;;22.00;52.12;100979.66;5035018;28;20103;-68
2022/06/17 07:02:53;;;;;;;4.57;1.73;;;;;;;22.00;51.81;100987.69;5034774;28;20160;-68
2022/06/17 07:05:19;;;;;;;4.65;1.90;;;;;;;22.06;51.15;100977.50;5034600;28;20505;-69
2022/06/17 07:07:45;;;;;;;3.28;1.85;;;;;;;22.12;50.99;100981.59;5016789;28;20474;-68
2022/06/17 07:10:15;;;;;;;4.93;1.90;;;;;;;21.86;51.51;100986.72;5016634;28;20485;-69
2022/06/17 07:12:41;;;;;;;2.60;1.52;;;;;;;22.15;51.04;100984.13;5034779;28;20081;-69
2022/06/17 07:15:07;;;;;;;3.17;1.73;;;;;;;22.25;50.73;100987.97;5050200;28;20049;-68
2022/06/17 07:17:32;;;;;;;4.50;2.10;;;;;;;22.29;50.89;100988.63;5034513;28;20116;-68
2022/06/17 07:19:58;;;;;;;3.72;2.00;;;;;;;22.23;51.10;100999.72;5034426;28;20453;-68
2022/06/17 07:22:23;;;;;;;7.68;2.22;;;;;;;22.26;51.22;100992.38;5000676;28;20033;-69
2022/06/17 07:24:49;;;;;;;3.28;1.60;;;;;;;22.53;50.62;100996.97;5034410;28;20524;-68
2022/06/17 07:27:15;;;;;;;3.67;2.00;;;;;;;22.68;50.02;100988.00;5049698;28;20044;-69
2022/06/17 07:29:41;;;;;;;4.97;1.80;;;;;;;22.66;49.88;100997.97;5034443;28;20064;-68
2022/06/17 07:32:06;;;;;;;3.55;1.70;;;;;;;22.70;49.56;101002.16;5034175;28;20040;-68
2022/06/17 07:34:32;;;;;;;3.17;1.73;;;;;;;22.67;49.67;100998.81;5016612;28;20037;-68
2022/06/17 07:39:53;;;;;;;5.32;1.63;;;;;;;22.69;49.88;101013.81;5034233;28;20056;-69
2022/06/17 07:42:19;;;;;;;5.07;1.80;;;;;;;22.91;49.28;101017.88;5034458;28;20057;-68
2022/06/17 07:44:45;;;;;;;3.47;1.50;;;;;;;23.00;49.09;100998.53;5034095;28;20030;-69
2022/06/17 07:47:17;;;;;;;3.80;1.55;;;;;;;23.18;48.15;101004.50;5033704;28;20039;-69
2022/06/17 07:49:42;;;;;;;4.27;1.60;;;;;;;23.03;48.87;101012.59;5033870;28;20072;-69
2022/06/17 07:52:08;;;;;;;4.20;1.67;;;;;;;23.17;48.45;101013.53;5033985;28;20077;-69
2022/06/17 07:54:34;;;;;;;4.60;1.60;;;;;;;23.33;48.07;101015.09;5033987;28;20030;-69
2022/06/17 07:57:00;;;;;;;4.22;1.52;;;;;;;23.35;47.64;101004.31;5028354;28;20064;-68
2022/06/17 07:59:25;;;;;;;3.13;1.70;;;;;;;23.38;48.23;101009.47;5031138;28;20108;-68
2022/06/17 08:01:51;;;;;;;5.47;1.40;;;;;;;23.53;47.94;101008.44;5014570;28;20080;-68
2022/06/17 08:04:17;;;;;;;3.28;1.55;;;;;;;23.85;47.18;101011.69;5031945;28;20057;-70
2022/06/17 08:06:49;;;;;;;3.40;1.70;;;;;;;23.75;47.30;101015.97;5031900;28;20112;-69
2022/06/17 08:09:16;;;;;;;3.40;1.70;;;;;;;23.87;47.11;101013.44;5031732;28;20481;-70
2022/06/17 08:11:41;;;;;;;4.07;1.48;;;;;;;23.68;47.39;101014.66;5032131;28;20053;-69
2022/06/17 08:14:07;;;;;;;3.30;1.58;;;;;;;23.93;46.54;101018.38;5048051;28;20034;-68
2022/06/17 08:16:32;;;;;;;4.78;1.65;;;;;;;24.04;46.84;101014.00;5032132;28;20034;-68
2022/06/17 08:18:59;;;;;;;3.80;1.40;;;;;;;24.16;46.42;101014.13;5033045;28;20155;-69
2022/06/17 08:21:24;;;;;;;3.47;1.52;;;;;;;24.19;46.36;101017.47;5015160;28;20485;-68
2022/06/17 08:23:49;;;;;;;4.03;1.50;;;;;;;24.09;46.12;101030.66;5015104;28;20132;-69
2022/06/17 08:26:15;;;;;;;2.15;1.20;;;;;;;24.31;45.31;101029.19;5032143;28;20516;-69
2022/06/17 08:28:40;;;;;;;2.83;1.45;;;;;;;24.33;45.46;101028.09;5029778;28;20092;-68
2022/06/17 08:31:06;;;;;;;5.68;1.90;;;;;;;24.60;45.23;101027.19;5033272;28;20064;-69
2022/06/17 08:33:31;;;;;;;4.10;1.70;;;;;;;24.41;44.80;101018.69;4998846;28;20488;-69
2022/06/17 08:36:08;;;;;;;3.05;1.10;;;;;;;24.73;44.49;101025.34;5033689;28;20108;-69
2022/06/17 08:38:36;;;;;;;3.28;1.25;;;;;;;25.07;44.15;101015.75;5031821;28;20033;-69
2022/06/17 08:41:29;;;;;;;3.72;1.10;;;;;;;25.02;42.62;101014.38;5032733;28;20099;-68
2022/06/17 08:44:00;;;;;;;1.63;1.30;;;;;;;25.30;41.88;101041.00;5032693;28;20438;-68
2022/06/17 08:46:34;;;;;;;3.45;1.48;;;;;;;25.54;41.45;101037.47;5033087;28;20041;-68
2022/06/17 08:49:24;;;;;;;3.92;1.10;;;;;;;25.54;40.65;101032.09;5031634;28;20105;-67
2022/06/17 08:51:50;;;;;;;2.05;1.23;;;;;;;25.66;41.81;101019.56;5007481;28;20053;-68
2022/06/17 08:54:33;;;;;;;4.38;1.40;;;;;;;25.57;40.26;101026.47;5010867;28;20029;-66
2022/06/17 08:57:21;;;;;;;3.22;1.17;;;;;;;25.72;39.84;101019.94;5011380;28;20109;-68
2022/06/17 09:00:11;;;;;;;2.60;0.90;;;;;;;26.28;38.85;101019.31;4993530;28;20036;-67
2022/06/17 09:02:48;;;;;;;3.45;1.00;;;;;;;26.74;37.85;101015.75;5011459;28;20026;-68
2022/06/17 09:05:37;;;;;;;2.38;0.90;;;;;;;26.87;38.13;101023.72;5013216;28;20101;-69
2022/06/17 09:08:17;;;;;;;4.20;1.30;;;;;;;26.52;38.73;101021.97;5012849;28;20046;-68
2022/06/17 09:11:04;;;;;;;4.22;1.20;;;;;;;26.29;38.97;101019.22;5013496;28;20084;-68
2022/06/17 09:13:53;;;;;;;2.63;1.10;;;;;;;26.31;39.91;101023.63;5013426;28;20049;-68
2022/06/17 09:16:57;;;;;;;2.70;0.93;;;;;;;25.87;37.85;101017.97;4985645;28;20076;-68
2022/06/17 09:19:29;;;;;;;2.80;0.90;;;;;;;26.18;38.59;101024.56;4999938;28;20125;-68
2022/06/17 09:22:02;;;;;;;6.13;1.17;;;;;;;26.09;39.38;101019.88;5017246;28;20104;-69
2022/06/17 09:24:36;;;;;;;1.83;1.05;;;;;;;25.79;38.82;101020.38;5016890;28;20049;-68
2022/06/17 09:27:05;;;;;;;3.42;1.40;;;;;;;25.60;39.09;101038.84;5016667;28;20061;-68
2022/06/17 09:29:47;;;;;;;2.60;1.05;;;;;;;25.29;39.50;101039.28;5016626;28;20029;-68
2022/06/17 09:32:38;;;;;;;2.88;1.05;;;;;;;25.42;39.44;101036.56;5017117;28;20065;-69
2022/06/17 09:35:16;;;;;;;2.65;0.80;;;;;;;25.53;39.24;101051.88;5007319;28;20042;-69
2022/06/17 09:37:55;;;;;;;3.55;0.90;;;;;;;25.87;38.56;101034.13;5017142;28;20068;-68
2022/06/17 09:40:29;;;;;;;1.95;1.00;;;;;;;26.45;38.73;101036.88;5016431;28;20052;-69
2022/06/17 09:43:11;;;;;;;8.95;1.27;;;;;;;26.26;37.45;101035.63;5016328;28;20389;-68
2022/06/17 09:46:02;;;;;;;3.35;1.00;;;;;;;26.09;38.06;101033.34;5016425;28;20112;-68
2022/06/17 09:48:38;;;;;;;2.00;1.00;;;;;;;25.89;36.20;101042.94;5005106;28;20076;-68
2022/06/17 09:51:13;;;;;;;3.40;1.30;;;;;;;25.95;36.43;101029.00;5016382;28;20022;-69
2022/06/17 09:53:46;;;;;;;3.53;1.38;;;;;;;26.11;37.71;101031.41;4998955;28;20092;-68
2022/06/17 09:56:16;;;;;;;2.95;1.00;;;;;;;26.15;38.49;101032.88;5016285;28;20445;-68
2022/06/17 09:58:48;;;;;;;3.15;1.27;;;;;;;25.73;38.63;101043.22;5016556;28;20038;-69
2022/06/17 10:01:13;;;;;;;3.42;1.00;;;;;;;25.62;39.61;101058.44;5016156;28;20112;-68
2022/06/17 10:03:40;;;;;;;1.38;0.80;;;;;;;25.63;38.78;101036.78;4998667;28;20042;-69
2022/06/17 10:06:32;;;;;;;2.85;0.95;;;;;;;25.64;37.08;101049.25;5016048;28;20030;-69
2022/06/17 10:09:07;;;;;;;2.17;0.90;;;;;;;25.69;37.67;101051.59;5015957;28;20030;-68
2022/06/17 10:12:01;;;;;;;2.58;1.27;;;;;;;25.83;37.29;101058.69;5016392;28;20042;-69
2022/06/17 10:15:08;;;;;;;1.85;1.10;;;;;;;25.98;37.59;101044.94;5011840;28;20474;-68
2022/06/17 10:20:48;;;;;;;1.77;0.80;;;;;;;26.32;37.42;101050.44;5015838;28;20049;-69
2022/06/17 10:23:38;;;;;;;3.33;1.00;;;;;;;26.63;37.61;101054.31;5015636;28;20029;-68
2022/06/17 10:26:22;;;;;;;2.38;1.08;;;;;;;27.00;36.38;101062.19;5015935;28;20354;-69
2022/06/17 10:28:58;;;;;;;4.38;1.17;;;;;;;27.31;35.68;101063.31;5014485;28;20041;-69
2022/06/17 10:31:32;;;;;;;2.15;0.77;;;;;;;27.76;35.41;101071.31;4998211;28;20132;-69
2022/06/17 10:34:02;;;;;;;2.05;0.93;;;;;;;28.00;34.51;101047.66;4997911;28;20033;-69
2022/06/17 10:36:28;;;;;;;3.40;1.00;;;;;;;28.20;34.13;101064.88;5015940;28;20029;-68
2022/06/17 10:38:53;;;;;;;2.45;1.00;;;;;;;28.32;33.96;101056.72;5015283;28;20037;-68
2022/06/17 10:41:19;;;;;;;2.70;0.80;;;;;;;28.29;34.46;101056.97;5015413;28;20126;-69
2022/06/17 10:43:51;;;;;;;1.98;1.00;;;;;;;28.35;34.13;101062.72;5015460;28;20056;-69
2022/06/17 10:46:32;;;;;;;1.60;1.00;;;;;;;27.90;34.59;101072.91;5015271;28;20044;-68
2022/06/17 10:49:15;;;;;;;3.03;1.25;;;;;;;27.65;34.84;101066.81;5015220;28;20029;-67
2022/06/17 10:51:41;;;;;;;;;;;;;;;27.47;35.08;101065.59;5019595;28;20115;-67
2022/06/17 10:54:19;;;;;;;2.30;1.33;;;;;;;27.35;35.04;101055.81;5034659;28;19912;-70
2022/06/17 10:57:01;;;;;;;2.50;1.30;;;;;;;27.50;34.75;101065.38;5017157;28;20060;-69
2022/06/17 10:59:33;;;;;;;1.25;0.75;;;;;;;27.40;34.10;101069.78;5035232;28;20041;-70
2022/06/17 11:01:59;;;;;;;3.40;0.90;;;;;;;27.54;34.78;101063.28;5034935;28;20037;-69
2022/06/17 11:04:29;;;;;;;3.20;1.05;;;;;;;27.57;34.17;101073.78;5034393;28;20049;-69
2022/06/17 11:06:57;;;;;;;2.03;1.00;;;;;;;27.70;34.55;101066.41;5034630;28;20469;-69
2022/06/17 11:09:28;;;;;;;1.90;0.80;;;;;;;27.53;34.51;101070.53;5034922;28;20029;-69
2022/06/17 11:12:10;;;;;;;2.15;0.98;;;;;;;27.54;35.01;101069.53;5034971;28;20033;-69
2022/06/17 11:14:41;;;;;;;;;;;;;;;27.74;34.54;101079.56;5035515;28;20041;-69
2022/06/17 11:17:39;;;;;;;2.58;1.00;;;;;;;27.95;33.82;101086.84;5032466;28;20210;-68
2022/06/17 11:20:19;;;;;;;3.88;1.20;;;;;;;27.89;34.53;101069.34;5026161;28;20510;-69
2022/06/17 11:23:03;;;;;;;3.35;1.30;;;;;;;27.71;34.62;101077.09;5034558;28;20067;-69
2022/06/17 11:25:31;;;;;;;1.58;0.80;;;;;;;27.91;34.76;101080.84;5027984;28;20068;-69
2022/06/17 11:28:07;;;;;;;4.20;0.90;;;;;;;28.09;34.83;101077.59;5015905;28;20159;-70
2022/06/17 11:30:37;;;;;;;3.42;0.80;;;;;;;28.11;34.29;101076.47;5033524;28;20127;-69
2022/06/17 11:33:19;;;;;;;2.72;0.90;;;;;;;28.24;34.64;101068.19;5033248;28;20065;-69
2022/06/17 11:35:44;;;;;;;4.20;1.20;;;;;;;28.11;34.68;101071.06;5033223;28;20029;-68
2022/06/17 11:38:14;;;;;;;4.88;1.02;;;;;;;28.16;34.55;101068.84;5030034;28;20041;-69
2022/06/17 11:40:51;;;;;;;2.95;0.90;;;;;;;27.87;34.93;101078.53;5032602;28;20786;-69
2022/06/17 11:43:27;;;;;;;4.95;1.63;;;;;;;28.01;35.64;101064.75;5033305;28;20409;-69
2022/06/17 11:45:53;;;;;;;4.45;1.42;;;;;;;27.99;35.08;101074.81;5033240;28;20249;-69
2022/06/17 11:48:21;;;;;;;2.55;1.40;;;;;;;27.56;35.61;101078.34;5033588;28;20393;-69
2022/06/17 11:51:10;;;;;;;3.65;1.30;;;;;;;27.10;35.82;101068.59;5016156;28;20358;-69
2022/06/17 11:53:53;;;;;;;4.90;1.05;;;;;;;27.06;35.20;101075.19;5034094;28;20127;-69
2022/06/17 11:56:27;;;;;;;;;;;;;;;26.98;35.34;101062.31;5016361;28;20474;-69